Time;durP1;ratioP1;P1;durP2;ratioP2;P2;SDS_P1;SDS_P2;PMS_P1;PMS_P2;Temp;Humidity;BMP_temperature;BMP_pressure;BME280_temperature;BME280_humidity;BME280_pressure;Samples;Min_cycle;Max_cycle;Signal;HPM_P1;HPM_P2
2023/12/23 00:01:19;;;;;;;6.30;1.50;;;;;;;8.25;98.68;100799.09;3604378;39;20063;-63
2023/12/23 00:03:45;;;;;;;5.38;1.20;;;;;;;8.26;97.96;100783.91;3603993;39;20118;-63
2023/12/23 00:06:10;;;;;;;4.63;0.98;;;;;;;8.27;98.03;100780.25;3606025;39;20366;-63
2023/12/23 00:08:36;;;;;;;5.72;1.50;;;;;;;8.26;98.96;100781.22;3611482;39;20283;-63
2023/12/23 00:11:02;;;;;;;7.25;1.60;;;;;;;8.30;98.72;100786.31;3606005;39;20407;-65
2023/12/23 00:13:28;;;;;;;7.75;1.98;;;;;;;7.67;98.71;100679.91;3606201;39;20055;-65
2023/12/23 00:15:53;;;;;;;6.47;1.70;;;;;;;8.36;98.12;100793.16;3606913;39;20410;-65
2023/12/23 00:18:19;;;;;;;7.53;1.42;;;;;;;8.28;98.80;100790.03;3605742;39;20055;-65
2023/12/23 00:20:44;;;;;;;3.45;1.30;;;;;;;8.39;99.20;100785.00;3605203;39;20108;-65
2023/12/23 00:23:12;;;;;;;4.75;1.50;;;;;;;8.37;98.56;100782.38;3607690;39;20051;-64
2023/12/23 00:25:37;;;;;;;6.65;1.80;;;;;;;8.41;98.32;100776.91;3603823;39;20051;-64
2023/12/23 00:28:04;;;;;;;6.05;1.38;;;;;;;8.40;98.85;100773.31;3606144;39;20376;-65
2023/12/23 00:30:29;;;;;;;5.38;1.52;;;;;;;8.40;98.98;100765.28;3604132;39;20120;-64
2023/12/23 00:32:55;;;;;;;4.18;1.58;;;;;;;8.42;99.45;100774.13;3606070;39;20303;-65
2023/12/23 00:35:21;;;;;;;9.05;2.08;;;;;;;8.43;98.74;100762.44;3606777;39;20057;-64
2023/12/23 00:37:46;;;;;;;6.93;1.92;;;;;;;8.45;99.72;100770.41;3607781;39;20335;-65
2023/12/23 00:40:12;;;;;;;11.10;2.83;;;;;;;8.48;99.90;100765.75;3603544;39;20055;-65
2023/12/23 00:42:38;;;;;;;9.93;2.42;;;;;;;8.53;100.00;100766.38;3604386;39;20055;-64
2023/12/23 00:45:05;;;;;;;9.00;1.92;;;;;;;8.62;100.00;100758.78;3603958;39;20391;-65
2023/12/23 00:47:31;;;;;;;15.07;2.38;;;;;;;8.73;100.00;100753.72;3607067;39;20051;-65
2023/12/23 00:49:57;;;;;;;8.73;2.08;;;;;;;8.88;100.00;100757.31;3605996;39;20051;-65
2023/12/23 00:52:22;;;;;;;9.25;2.28;;;;;;;9.06;100.00;100751.78;3607585;39;20124;-64
2023/12/23 00:54:48;;;;;;;13.38;2.40;;;;;;;9.19;100.00;100760.00;3603956;39;20081;-64
2023/12/23 00:57:14;;;;;;;6.85;2.22;;;;;;;8.67;99.77;100644.19;3607146;39;20123;-64
2023/12/23 00:59:40;;;;;;;11.65;2.17;;;;;;;9.38;98.78;100748.22;3607402;39;20080;-68
2023/12/23 01:02:05;;;;;;;17.52;2.67;;;;;;;9.46;98.74;100749.50;3603485;39;20063;-65
2023/12/23 01:04:31;;;;;;;10.85;2.30;;;;;;;9.53;97.95;100742.81;3608499;39;20070;-65
2023/12/23 01:06:57;;;;;;;10.07;2.53;;;;;;;9.59;96.81;100751.47;3608576;39;20275;-65
2023/12/23 01:09:22;;;;;;;9.57;2.15;;;;;;;9.63;97.04;100747.66;3608278;39;20077;-65
2023/12/23 01:11:48;;;;;;;9.98;2.20;;;;;;;9.69;96.56;100753.53;3610787;39;20050;-65
2023/12/23 01:14:14;;;;;;;8.75;2.35;;;;;;;9.66;95.50;100729.53;3607827;39;20059;-65
2023/12/23 01:16:39;;;;;;;10.50;2.40;;;;;;;9.78;94.87;100733.31;3611154;39;20293;-65
2023/12/23 01:19:05;;;;;;;8.35;2.05;;;;;;;9.82;94.20;100723.25;3610567;39;20047;-65
2023/12/23 01:21:30;;;;;;;9.40;2.20;;;;;;;9.85;94.31;100726.63;3606862;39;20047;-65
2023/12/23 01:23:56;;;;;;;8.45;2.08;;;;;;;9.90;92.81;100724.53;3608141;39;20062;-65
2023/12/23 01:26:22;;;;;;;10.00;1.95;;;;;;;9.93;93.14;100724.34;3609713;39;20302;-65
2023/12/23 01:28:47;;;;;;;11.60;2.50;;;;;;;9.92;92.37;100722.59;3611914;39;20047;-65
2023/12/23 01:31:13;;;;;;;6.32;2.15;;;;;;;9.97;91.38;100720.50;3609528;39;20062;-65
2023/12/23 01:33:39;;;;;;;13.25;2.22;;;;;;;10.00;91.76;100724.84;3609269;39;20264;-65
2023/12/23 01:36:05;;;;;;;8.02;2.25;;;;;;;10.02;91.55;100722.03;3607324;39;20066;-65
2023/12/23 01:38:33;;;;;;;9.57;2.10;;;;;;;10.04;91.22;100725.50;3607480;39;20051;-65
2023/12/23 01:40:59;;;;;;;9.70;2.50;;;;;;;10.04;91.44;100709.41;3610703;39;20348;-65
2023/12/23 01:43:24;;;;;;;11.25;2.47;;;;;;;10.06;91.47;100697.59;3606368;39;20050;-65
2023/12/23 01:45:58;;;;;;;12.77;2.25;;;;;;;10.08;92.03;100705.56;3608756;39;20426;-65
2023/12/23 01:48:27;;;;;;;9.85;2.42;;;;;;;10.11;91.87;100710.72;3607968;39;20311;-65
2023/12/23 01:50:56;;;;;;;8.70;1.63;;;;;;;10.11;91.61;100705.38;3608255;39;20128;-65
2023/12/23 01:53:25;;;;;;;9.88;2.13;;;;;;;10.10;92.37;100707.19;3607610;39;20368;-65
2023/12/23 01:55:52;;;;;;;8.85;1.80;;;;;;;10.15;92.36;100709.59;3610869;39;20542;-66
2023/12/23 01:58:19;;;;;;;8.75;2.10;;;;;;;10.11;92.44;100703.53;3611722;39;20395;-65
2023/12/23 02:00:45;;;;;;;10.40;2.15;;;;;;;10.14;91.97;100705.19;3607006;39;20127;-65
2023/12/23 02:03:11;;;;;;;9.23;1.90;;;;;;;10.21;92.52;100707.41;3610122;39;20063;-64
2023/12/23 02:05:36;;;;;;;9.57;2.13;;;;;;;10.20;92.83;100704.78;3608015;39;20051;-65
2023/12/23 02:08:02;;;;;;;6.40;2.00;;;;;;;10.12;93.17;100697.22;3605637;39;20065;-65
2023/12/23 02:10:28;;;;;;;12.63;2.40;;;;;;;10.10;94.71;100703.66;3605631;39;20377;-65
2023/12/23 02:13:24;;;;;;;10.35;2.42;;;;;;;10.03;95.00;100697.78;3606182;39;20122;-65
2023/12/23 02:15:52;;;;;;;8.68;2.13;;;;;;;10.01;95.97;100688.97;3609315;39;20047;-65
2023/12/23 02:18:19;;;;;;;6.32;1.90;;;;;;;9.96;96.92;100680.34;3606116;39;20050;-65
2023/12/23 02:20:51;;;;;;;8.80;1.95;;;;;;;9.94;97.41;100687.63;3606434;39;20055;-65
2023/12/23 02:23:18;;;;;;;9.30;2.20;;;;;;;9.92;97.47;100684.16;3605891;39;20055;-65
2023/12/23 02:25:57;;;;;;;14.90;2.65;;;;;;;9.89;97.98;100695.94;3607210;39;20051;-65
2023/12/23 02:28:25;;;;;;;5.40;1.65;;;;;;;9.90;97.69;100694.13;3608712;39;20091;-65
2023/12/23 02:30:53;;;;;;;10.45;2.35;;;;;;;9.85;98.30;100678.28;3601209;39;20063;-65
2023/12/23 02:33:20;;;;;;;10.45;2.25;;;;;;;9.88;97.74;100688.84;3605776;39;20413;-64
2023/12/23 02:35:52;;;;;;;10.50;2.22;;;;;;;9.82;97.83;100678.47;3606459;39;20051;-65
2023/12/23 02:38:20;;;;;;;10.35;2.67;;;;;;;9.85;98.00;100678.28;3605591;39;20047;-65
2023/12/23 02:40:45;;;;;;;13.10;2.85;;;;;;;9.90;97.90;100689.63;3606247;39;20051;-65
2023/12/23 02:43:11;;;;;;;9.90;2.42;;;;;;;9.91;97.37;100677.91;3603552;39;20098;-65
2023/12/23 02:45:36;;;;;;;7.40;2.10;;;;;;;9.94;96.66;100680.41;3607138;39;20047;-63
2023/12/23 02:48:03;;;;;;;11.30;2.47;;;;;;;9.95;96.36;100679.44;3606747;39;20081;-63
2023/12/23 02:50:28;;;;;;;8.65;2.08;;;;;;;9.93;96.23;100659.03;3606338;39;20054;-64
2023/12/23 02:52:54;;;;;;;8.32;2.67;;;;;;;9.97;95.79;100656.06;3607255;39;20048;-63
2023/12/23 02:55:19;;;;;;;10.00;2.00;;;;;;;10.04;95.38;100655.69;3606564;39;20058;-64
2023/12/23 02:57:45;;;;;;;9.35;2.60;;;;;;;10.09;94.34;100656.28;3608279;39;20298;-63
2023/12/23 03:00:12;;;;;;;10.30;2.17;;;;;;;10.10;93.72;100660.69;3607491;39;20062;-64
2023/12/23 03:02:38;;;;;;;10.63;2.28;;;;;;;10.12;92.70;100650.72;3607071;39;20047;-64
2023/12/23 03:05:05;;;;;;;11.20;2.20;;;;;;;10.16;92.35;100655.78;3608247;39;20063;-64
2023/12/23 03:07:30;;;;;;;12.07;2.72;;;;;;;10.17;91.96;100648.56;3606910;39;20048;-63
2023/12/23 03:09:56;;;;;;;9.00;2.20;;;;;;;10.18;91.33;100659.25;3606340;39;20058;-64
2023/12/23 03:12:21;;;;;;;8.55;2.15;;;;;;;10.22;91.39;100641.09;3611260;39;20058;-64
2023/12/23 03:14:47;;;;;;;11.70;2.40;;;;;;;10.16;90.79;100636.13;3611212;39;20055;-64
2023/12/23 03:17:13;;;;;;;8.98;2.33;;;;;;;10.22;90.52;100651.84;3600903;39;20051;-63
2023/12/23 03:19:41;;;;;;;5.88;2.00;;;;;;;9.60;89.92;100530.47;3609339;39;20054;-64
2023/12/23 03:22:07;;;;;;;5.80;1.73;;;;;;;10.29;89.95;100650.53;3607924;39;20665;-64
2023/12/23 03:24:32;;;;;;;9.55;2.00;;;;;;;10.27;89.04;100641.69;3610062;39;20054;-64
2023/12/23 03:26:58;;;;;;;11.15;2.22;;;;;;;10.33;89.15;100652.06;3608988;39;20047;-64
2023/12/23 03:29:24;;;;;;;9.32;2.33;;;;;;;10.28;88.77;100650.63;3609424;39;20061;-64
2023/12/23 03:31:49;;;;;;;11.02;2.50;;;;;;;10.32;88.58;100650.34;3608411;39;20055;-65
2023/12/23 03:34:15;;;;;;;10.15;2.55;;;;;;;10.33;88.55;100653.88;3609319;39;20387;-65
2023/12/23 03:36:41;;;;;;;11.60;2.42;;;;;;;10.34;88.13;100645.72;3607326;39;20055;-65
2023/12/23 03:39:06;;;;;;;10.23;1.90;;;;;;;10.31;88.25;100640.56;3606717;39;20062;-64
2023/12/23 03:41:32;;;;;;;10.68;2.53;;;;;;;10.34;88.10;100645.72;3608586;39;20066;-63
2023/12/23 03:43:57;;;;;;;7.60;2.13;;;;;;;10.34;88.39;100645.72;3607570;39;20464;-64
2023/12/23 03:46:23;;;;;;;7.68;2.22;;;;;;;10.36;87.93;100638.41;3606189;39;20058;-64
2023/12/23 03:48:49;;;;;;;8.63;2.15;;;;;;;10.36;87.60;100629.50;3606779;39;20306;-64
2023/12/23 03:51:15;;;;;;;13.25;2.55;;;;;;;10.37;87.39;100636.59;3606275;39;20050;-63
2023/12/23 03:53:42;;;;;;;10.65;2.53;;;;;;;10.35;87.76;100644.75;3609298;39;20299;-64
2023/12/23 03:56:07;;;;;;;9.02;2.03;;;;;;;10.36;87.53;100643.78;3606261;39;20406;-64
2023/12/23 03:58:33;;;;;;;11.98;2.55;;;;;;;10.38;87.40;100641.88;3606266;39;20051;-64
2023/12/23 04:00:58;;;;;;;13.90;2.25;;;;;;;10.39;86.93;100634.69;3606290;39;20055;-65
2023/12/23 04:03:24;;;;;;;9.15;2.15;;;;;;;10.36;87.32;100638.41;3606091;39;20405;-65
2023/12/23 04:05:49;;;;;;;10.23;2.42;;;;;;;10.41;86.64;100643.53;3607549;39;20050;-65
2023/12/23 04:08:16;;;;;;;10.20;2.42;;;;;;;10.39;86.87;100635.53;3609582;39;20077;-64
2023/12/23 04:10:42;;;;;;;8.82;2.75;;;;;;;10.38;87.30;100649.09;3606637;39;20055;-64
2023/12/23 04:13:08;;;;;;;10.23;2.47;;;;;;;10.39;86.42;100637.38;3606009;39;20330;-64
2023/12/23 04:15:33;;;;;;;9.10;2.10;;;;;;;10.44;85.77;100633.44;3606107;39;20273;-64
2023/12/23 04:17:59;;;;;;;5.88;1.88;;;;;;;10.47;85.32;100628.84;3606169;39;20066;-64
2023/12/23 04:20:25;;;;;;;9.80;2.30;;;;;;;10.43;85.71;100628.13;3606998;39;20292;-64
2023/12/23 04:22:50;;;;;;;10.15;2.15;;;;;;;10.40;85.74;100621.16;3608918;39;20046;-64
2023/12/23 04:25:16;;;;;;;7.13;2.13;;;;;;;10.40;85.87;100621.16;3607020;39;20718;-64
2023/12/23 04:27:41;;;;;;;11.27;2.13;;;;;;;10.40;85.94;100621.16;3608414;39;20058;-64
2023/12/23 04:30:07;;;;;;;10.70;2.15;;;;;;;10.40;85.39;100610.41;3606809;39;20035;-63
2023/12/23 04:32:33;;;;;;;8.48;2.42;;;;;;;10.40;85.65;100605.03;3609075;39;20119;-63
2023/12/23 04:34:59;;;;;;;10.70;2.40;;;;;;;10.39;85.41;100608.66;3608239;39;20307;-63
2023/12/23 04:37:26;;;;;;;7.15;1.85;;;;;;;10.41;85.65;100592.47;3608645;39;20055;-64
2023/12/23 04:39:53;;;;;;;12.48;2.42;;;;;;;10.42;85.63;100602.25;3608037;39;20108;-63
2023/12/23 04:42:18;;;;;;;6.78;2.28;;;;;;;10.42;85.25;100592.34;3613159;39;20066;-64
2023/12/23 04:44:44;;;;;;;8.23;1.95;;;;;;;10.43;85.08;100591.41;3611769;39;20040;-64
2023/12/23 04:47:10;;;;;;;9.63;2.20;;;;;;;10.45;85.11;100588.59;3608876;39;20055;-64
2023/12/23 04:49:35;;;;;;;8.30;2.08;;;;;;;10.42;84.84;100586.97;3614408;39;20123;-63
2023/12/23 04:52:01;;;;;;;6.40;1.70;;;;;;;10.45;84.48;100581.41;3612997;39;20055;-63
2023/12/23 04:54:27;;;;;;;7.28;2.00;;;;;;;10.44;84.92;100577.00;3612509;39;20058;-63
2023/12/23 04:56:53;;;;;;;9.63;2.13;;;;;;;10.51;84.19;100581.97;3610492;39;20051;-63
2023/12/23 04:59:18;;;;;;;10.02;2.97;;;;;;;10.45;84.70;100573.34;3608216;39;20401;-63
2023/12/23 05:01:44;;;;;;;10.15;2.58;;;;;;;10.46;84.58;100587.63;3612184;39;20055;-63
2023/12/23 05:04:10;;;;;;;8.98;1.88;;;;;;;10.45;84.73;100569.78;3599201;39;20347;-63
2023/12/23 05:06:35;;;;;;;6.57;2.30;;;;;;;10.44;84.84;100563.56;3613594;39;20379;-63
2023/12/23 05:09:01;;;;;;;8.63;2.25;;;;;;;10.46;84.47;100582.25;3611186;39;20050;-63
2023/12/23 05:11:26;;;;;;;8.82;2.35;;;;;;;10.44;85.03;100584.19;3610908;39;20047;-63
2023/12/23 05:13:52;;;;;;;7.65;2.22;;;;;;;10.42;85.40;100581.59;3611239;39;20051;-63
2023/12/23 05:16:18;;;;;;;6.38;2.10;;;;;;;10.41;84.83;100569.13;3610172;39;20070;-63
2023/12/23 05:18:43;;;;;;;7.75;2.20;;;;;;;10.40;84.96;100579.97;3613200;39;20058;-63
2023/12/23 05:21:09;;;;;;;7.55;2.17;;;;;;;10.41;85.13;100571.81;3609394;39;20272;-63
2023/12/23 05:23:34;;;;;;;8.98;2.25;;;;;;;10.41;84.92;100587.94;3610939;39;20054;-63
2023/12/23 05:26:00;;;;;;;7.60;2.17;;;;;;;10.43;85.24;100571.72;3611413;39;20050;-63
2023/12/23 05:28:26;;;;;;;10.25;2.45;;;;;;;10.41;84.52;100553.00;3612784;39;20307;-63
2023/12/23 05:30:51;;;;;;;10.13;2.33;;;;;;;10.47;84.04;100562.50;3610308;39;20178;-63
2023/12/23 05:33:18;;;;;;;7.03;2.00;;;;;;;10.50;83.97;100566.78;3609677;39;20055;-63
2023/12/23 05:35:44;;;;;;;7.70;2.10;;;;;;;10.44;83.93;100554.66;3611743;39;20039;-62
2023/12/23 05:38:10;;;;;;;10.48;2.60;;;;;;;10.47;84.45;100549.06;3610741;39;20053;-63
2023/12/23 05:40:37;;;;;;;7.78;2.30;;;;;;;10.50;83.87;100561.41;3611347;39;20452;-63
2023/12/23 05:43:03;;;;;;;11.80;2.35;;;;;;;10.50;84.07;100564.09;3613113;39;20054;-63
2023/12/23 05:45:28;;;;;;;7.85;2.20;;;;;;;10.48;84.03;100552.63;3611212;39;20070;-63
2023/12/23 05:47:54;;;;;;;10.02;2.63;;;;;;;10.53;83.04;100566.59;3614711;39;20050;-63
2023/12/23 05:50:19;;;;;;;8.40;2.10;;;;;;;10.53;82.93;100566.59;3609777;39;20069;-63
2023/12/23 05:52:45;;;;;;;8.52;2.17;;;;;;;10.57;83.22;100560.94;3612080;39;20063;-63
2023/12/23 05:55:11;;;;;;;10.13;2.10;;;;;;;10.47;83.19;100548.22;3608693;39;20085;-63
2023/12/23 05:57:36;;;;;;;6.70;2.00;;;;;;;10.55;82.98;100553.91;3609878;39;20055;-63
2023/12/23 06:00:05;;;;;;;6.07;1.88;;;;;;;10.60;83.49;100570.63;3611224;39;20054;-63
2023/12/23 06:02:31;;;;;;;11.57;2.40;;;;;;;10.59;83.37;100566.19;3609693;39;20047;-63
2023/12/23 06:04:58;;;;;;;8.75;2.13;;;;;;;10.61;82.68;100559.75;3610754;39;20061;-63
2023/12/23 06:07:23;;;;;;;10.45;2.60;;;;;;;10.63;82.93;100562.34;3608933;39;20047;-65
2023/12/23 06:09:49;;;;;;;14.35;2.88;;;;;;;10.62;83.39;100572.22;3610747;39;20055;-65
2023/12/23 06:12:15;;;;;;;9.10;2.38;;;;;;;10.62;82.81;100561.47;3608768;39;20051;-65
2023/12/23 06:14:41;;;;;;;10.68;2.75;;;;;;;10.64;83.30;100545.25;3610297;39;20043;-65
2023/12/23 06:17:08;;;;;;;7.20;2.40;;;;;;;10.63;82.52;100546.22;3607550;39;20098;-65
2023/12/23 06:19:34;;;;;;;8.77;2.40;;;;;;;10.64;83.24;100546.09;3609415;39;20047;-65
2023/12/23 06:21:59;;;;;;;7.63;2.30;;;;;;;10.64;82.46;100548.78;3609631;39;20082;-65
2023/12/23 06:24:25;;;;;;;6.78;2.10;;;;;;;10.65;82.61;100544.28;3606984;39;20062;-65
2023/12/23 06:26:51;;;;;;;12.90;2.78;;;;;;;10.60;82.43;100541.06;3609796;39;20057;-65
2023/12/23 06:29:16;;;;;;;12.93;2.78;;;;;;;10.66;82.99;100552.25;3609014;39;20058;-65
2023/12/23 06:31:42;;;;;;;8.38;2.10;;;;;;;10.65;83.04;100545.13;3608811;39;20070;-64
2023/12/23 06:34:07;;;;;;;9.88;2.55;;;;;;;10.67;83.11;100553.97;3608137;39;20066;-64
2023/12/23 06:36:33;;;;;;;10.88;2.00;;;;;;;10.66;82.51;100540.66;3609572;39;20066;-65
2023/12/23 06:38:59;;;;;;;10.52;2.30;;;;;;;10.69;82.86;100556.56;3608937;39;20050;-65
2023/12/23 06:41:24;;;;;;;9.95;2.35;;;;;;;10.68;83.28;100566.44;3601770;39;20067;-65
2023/12/23 06:43:50;;;;;;;7.65;2.00;;;;;;;10.70;82.64;100569.03;3609107;39;20047;-65
2023/12/23 06:46:15;;;;;;;12.80;3.20;;;;;;;10.67;83.36;100558.50;3607617;39;20063;-65
2023/12/23 06:48:41;;;;;;;11.07;2.60;;;;;;;10.65;83.51;100557.72;3609567;39;20059;-65
2023/12/23 06:51:07;;;;;;;9.90;2.45;;;;;;;10.66;83.10;100548.72;3608070;39;20061;-65
2023/12/23 06:53:32;;;;;;;10.00;2.70;;;;;;;10.66;83.33;100552.25;3608130;39;20055;-65
2023/12/23 06:55:58;;;;;;;13.07;2.88;;;;;;;10.65;83.24;100572.00;3610345;39;20066;-65
2023/12/23 06:58:28;;;;;;;13.02;2.25;;;;;;;10.65;83.45;100555.88;3599634;39;20391;-64
2023/12/23 07:00:54;;;;;;;10.45;2.67;;;;;;;10.67;83.08;100547.75;3607064;39;20043;-64
2023/12/23 07:03:20;;;;;;;7.90;2.42;;;;;;;10.67;83.83;100562.03;3607557;39;20078;-65
2023/12/23 07:05:46;;;;;;;11.32;2.97;;;;;;;10.67;83.46;100542.38;3608244;39;20080;-64
2023/12/23 07:08:11;;;;;;;6.32;2.33;;;;;;;10.66;83.64;100546.03;3605592;39;20051;-65
2023/12/23 07:10:37;;;;;;;10.90;2.78;;;;;;;10.67;83.48;100547.75;3607831;39;20051;-65
2023/12/23 07:13:03;;;;;;;9.85;2.78;;;;;;;10.07;83.81;100441.50;3607731;39;20085;-65
2023/12/23 07:15:28;;;;;;;9.48;2.20;;;;;;;10.70;83.39;100539.47;3603744;39;20065;-65
2023/12/23 07:17:54;;;;;;;8.57;2.30;;;;;;;10.69;83.52;100546.69;3607905;39;20051;-64
2023/12/23 07:20:20;;;;;;;9.60;2.50;;;;;;;10.75;83.14;100539.16;3608615;39;20070;-64
2023/12/23 07:22:45;;;;;;;6.50;2.10;;;;;;;10.74;83.02;100548.19;3607714;39;20059;-64
2023/12/23 07:25:11;;;;;;;10.52;2.92;;;;;;;10.75;83.04;100545.41;3609143;39;20057;-65
2023/12/23 07:27:36;;;;;;;11.88;2.85;;;;;;;10.76;82.69;100563.25;3607705;39;20063;-65
2023/12/23 07:30:03;;;;;;;9.35;2.53;;;;;;;10.77;82.28;100562.28;3608947;39;20058;-65
2023/12/23 07:32:28;;;;;;;10.05;2.53;;;;;;;10.78;82.90;100572.06;3608582;39;20051;-65
2023/12/23 07:34:54;;;;;;;10.02;2.20;;;;;;;10.76;82.20;100557.03;3608662;39;20047;-65
2023/12/23 07:37:20;;;;;;;13.95;2.80;;;;;;;10.81;82.19;100576.38;3608363;39;20102;-65
2023/12/23 07:39:45;;;;;;;9.95;2.33;;;;;;;10.82;81.74;100570.91;3610427;39;20059;-64
2023/12/23 07:42:12;;;;;;;6.90;1.80;;;;;;;10.83;82.04;100590.59;3609251;39;20053;-64
2023/12/23 07:44:38;;;;;;;9.55;2.55;;;;;;;10.87;81.71;100581.34;3609268;39;20261;-64
2023/12/23 07:47:05;;;;;;;8.95;2.20;;;;;;;10.88;82.01;100578.56;3609620;39;20054;-64
2023/12/23 07:49:32;;;;;;;7.35;2.22;;;;;;;10.92;81.69;100573.84;3610599;39;20062;-65
2023/12/23 07:51:58;;;;;;;10.43;2.20;;;;;;;10.91;80.83;100562.22;3610327;39;20093;-64
2023/12/23 07:54:24;;;;;;;8.10;2.13;;;;;;;10.92;81.03;100550.50;3610967;39;20058;-64
2023/12/23 07:56:50;;;;;;;7.15;2.38;;;;;;;10.94;81.24;100553.06;3609992;39;20508;-65
2023/12/23 07:59:16;;;;;;;7.63;1.92;;;;;;;10.91;80.33;100543.41;3607657;39;20055;-64
2023/12/23 08:01:46;;;;;;;7.93;1.90;;;;;;;10.96;80.65;100561.91;3609807;39;20315;-65
2023/12/23 08:04:13;;;;;;;10.60;2.58;;;;;;;11.01;80.22;100561.63;3608482;39;20379;-65
2023/12/23 08:06:39;;;;;;;12.20;2.80;;;;;;;11.03;79.53;100581.19;3610790;39;20091;-65
2023/12/23 08:09:05;;;;;;;6.80;1.85;;;;;;;11.04;79.69;100566.78;3609819;39;20058;-65
2023/12/23 08:11:31;;;;;;;9.30;2.50;;;;;;;11.05;79.12;100565.81;3607841;39;20051;-64
2023/12/23 08:13:57;;;;;;;7.60;2.10;;;;;;;11.08;79.25;100554.84;3611454;39;20055;-65
2023/12/23 08:16:22;;;;;;;8.05;2.38;;;;;;;11.07;79.03;100566.56;3608997;39;20066;-62
2023/12/23 08:18:48;;;;;;;8.45;2.10;;;;;;;11.10;79.12;100577.09;3611949;39;20065;-63
2023/12/23 08:21:14;;;;;;;6.93;1.85;;;;;;;11.12;78.23;100580.56;3607469;39;20055;-63
2023/12/23 08:23:39;;;;;;;8.38;2.05;;;;;;;10.69;77.75;100497.44;3609762;39;20132;-63
2023/12/23 08:26:05;;;;;;;12.68;2.15;;;;;;;11.15;77.50;100577.66;3599780;39;20135;-63
2023/12/23 08:28:31;;;;;;;5.63;2.28;;;;;;;11.20;77.49;100575.53;3609675;39;20410;-62
2023/12/23 08:30:57;;;;;;;8.45;2.22;;;;;;;11.21;77.93;100574.56;3610055;39;20055;-65
2023/12/23 08:33:22;;;;;;;7.15;1.85;;;;;;;11.21;77.28;100593.38;3608081;39;20055;-63
2023/12/23 08:35:48;;;;;;;8.07;1.90;;;;;;;11.21;77.98;100585.31;3610225;39;20057;-63
2023/12/23 08:38:14;;;;;;;7.20;1.90;;;;;;;11.24;77.65;100589.63;3609103;39;20055;-63
2023/12/23 08:40:40;;;;;;;6.90;1.98;;;;;;;11.23;77.66;100599.53;3608361;39;20071;-63
2023/12/23 08:43:05;;;;;;;7.70;2.00;;;;;;;11.25;77.51;100596.72;3598025;39;20066;-62
2023/12/23 08:45:31;;;;;;;11.93;2.45;;;;;;;11.25;78.53;100592.19;3606638;39;20051;-64
2023/12/23 08:47:56;;;;;;;8.88;2.25;;;;;;;11.23;78.40;100591.47;3610178;39;20383;-63
2023/12/23 08:50:22;;;;;;;11.45;2.47;;;;;;;11.25;78.67;100591.34;3607925;39;20066;-63
2023/12/23 08:52:49;;;;;;;5.65;1.50;;;;;;;11.26;78.46;100585.88;3608516;39;20371;-63
2023/12/23 08:55:15;;;;;;;8.52;2.35;;;;;;;11.25;78.75;100586.81;3609912;39;20051;-63
2023/12/23 08:57:41;;;;;;;6.85;2.30;;;;;;;11.24;79.29;100595.00;3609382;39;20051;-63
2023/12/23 09:00:07;;;;;;;9.15;2.28;;;;;;;11.21;80.01;100601.47;3608722;39;20101;-62
2023/12/23 09:02:34;;;;;;;8.50;1.90;;;;;;;11.19;80.48;100608.75;3608214;39;20055;-63
2023/12/23 09:05:00;;;;;;;6.78;1.63;;;;;;;11.14;80.72;100611.78;3610350;39;20038;-63
2023/12/23 09:07:25;;;;;;;9.48;1.90;;;;;;;11.10;81.74;100604.00;3604077;39;20378;-63
2023/12/23 09:09:51;;;;;;;6.43;1.65;;;;;;;11.01;82.47;100624.34;3609994;39;20058;-63
2023/12/23 09:12:19;;;;;;;7.10;1.77;;;;;;;10.98;83.06;100626.38;3608924;39;20047;-63
2023/12/23 09:14:49;;;;;;;5.72;1.70;;;;;;;10.90;83.47;100627.72;3609931;39;20050;-63
2023/12/23 09:17:18;;;;;;;8.90;2.47;;;;;;;10.88;84.00;100626.97;3611417;39;20059;-63
2023/12/23 09:19:44;;;;;;;10.32;1.90;;;;;;;10.75;83.95;100614.41;3608722;39;20385;-62
2023/12/23 09:22:10;;;;;;;11.20;2.17;;;;;;;10.84;84.23;100628.13;3608594;39;20051;-64
2023/12/23 09:24:36;;;;;;;7.47;1.67;;;;;;;10.80;84.72;100631.13;3610298;39;20313;-64
2023/12/23 09:27:02;;;;;;;6.78;1.75;;;;;;;10.71;85.16;100623.66;3609932;39;20067;-65
2023/12/23 09:29:27;;;;;;;7.65;2.20;;;;;;;10.75;85.14;100622.50;3609020;39;20090;-64
2023/12/23 09:31:53;;;;;;;7.07;2.20;;;;;;;10.76;85.10;100633.16;3614492;39;20075;-63
2023/12/23 09:34:21;;;;;;;8.30;1.60;;;;;;;10.69;84.63;100621.09;3606857;39;20054;-63
2023/12/23 09:36:47;;;;;;;8.52;2.00;;;;;;;10.83;84.18;100629.09;3610965;39;20063;-63
2023/12/23 09:39:13;;;;;;;7.93;2.55;;;;;;;10.88;83.80;100610.84;3608266;39;20123;-63
2023/12/23 09:41:41;;;;;;;8.85;1.83;;;;;;;10.90;83.48;100625.03;3607247;39;20059;-63
2023/12/23 09:44:07;;;;;;;8.65;1.98;;;;;;;10.91;83.11;100631.28;3608275;39;20059;-63
2023/12/23 09:46:37;;;;;;;7.72;1.90;;;;;;;10.27;82.28;100526.16;3600952;39;20410;-65
2023/12/23 09:49:03;;;;;;;6.80;2.00;;;;;;;11.02;82.27;100638.63;3611040;39;20047;-64
2023/12/23 09:51:32;;;;;;;4.82;1.58;;;;;;;11.04;81.33;100653.72;3611043;39;20761;-63
2023/12/23 09:54:05;;;;;;;8.10;1.90;;;;;;;11.11;80.65;100644.25;3610461;39;20054;-63
2023/12/23 09:56:31;;;;;;;7.00;1.92;;;;;;;11.16;80.48;100627.78;3608396;39;20059;-63
2023/12/23 09:58:57;;;;;;;7.25;1.50;;;;;;;11.17;80.62;100632.22;3612080;39;20055;-63
2023/12/23 10:01:23;;;;;;;9.45;1.85;;;;;;;11.18;80.20;100639.31;3611689;39;20115;-63
2023/12/23 10:03:53;;;;;;;7.18;2.50;;;;;;;11.20;79.93;100642.78;3609533;39;20169;-63
2023/12/23 10:06:19;;;;;;;5.85;1.90;;;;;;;11.24;79.67;100649.69;3608219;39;20075;-63
2023/12/23 10:08:45;;;;;;;8.95;2.00;;;;;;;11.24;79.46;100671.22;3601666;39;20049;-63
2023/12/23 10:11:11;;;;;;;8.05;1.90;;;;;;;11.33;78.67;100658.97;3608783;39;20128;-63
2023/12/23 10:13:37;;;;;;;6.90;1.77;;;;;;;11.31;78.36;100655.50;3612709;39;20047;-63
2023/12/23 10:16:04;;;;;;;7.07;1.85;;;;;;;11.30;78.57;100664.56;3607772;39;20051;-63
2023/12/23 10:18:31;;;;;;;8.70;1.73;;;;;;;11.33;78.13;100659.81;3606978;39;20079;-63
2023/12/23 10:20:57;;;;;;;7.60;2.15;;;;;;;11.34;78.00;100655.28;3610050;39;20062;-63
2023/12/23 10:23:23;;;;;;;7.13;1.70;;;;;;;11.36;77.65;100654.22;3610018;39;20051;-63
2023/12/23 10:25:52;;;;;;;8.75;2.03;;;;;;;11.37;77.75;100639.81;3610831;39;20097;-63
2023/12/23 10:28:21;;;;;;;7.35;1.83;;;;;;;11.05;77.42;100606.16;3610852;39;20075;-63
2023/12/23 10:30:50;;;;;;;9.27;2.17;;;;;;;11.47;77.08;100642.72;3611445;39;20162;-63
2023/12/23 10:33:18;;;;;;;8.32;2.03;;;;;;;11.45;77.14;100638.41;3608710;39;20051;-63
2023/12/23 10:35:47;;;;;;;6.32;1.80;;;;;;;11.51;76.66;100663.09;3611071;39;20100;-63
2023/12/23 10:38:22;;;;;;;8.48;1.75;;;;;;;11.53;76.25;100649.53;3610068;39;20042;-63
2023/12/23 10:41:09;;;;;;;6.25;1.50;;;;;;;11.60;75.91;100640.06;3599673;39;20119;-63
2023/12/23 10:43:38;;;;;;;6.82;1.63;;;;;;;11.65;75.85;100651.38;3609914;39;20055;-65
2023/12/23 10:46:07;;;;;;;4.75;1.63;;;;;;;11.06;75.24;100554.06;3609743;39;20379;-64
2023/12/23 10:48:36;;;;;;;7.72;1.88;;;;;;;11.71;75.29;100669.81;3607342;39;20075;-65
2023/12/23 10:51:03;;;;;;;7.85;1.95;;;;;;;11.76;75.23;100666.78;3611596;39;20053;-64
2023/12/23 10:53:31;;;;;;;5.55;1.83;;;;;;;11.77;74.80;100642.44;3610116;39;20087;-65
2023/12/23 10:55:57;;;;;;;7.68;1.75;;;;;;;11.80;74.43;100634.16;3612017;39;20113;-64
2023/12/23 10:58:24;;;;;;;7.30;1.70;;;;;;;11.82;74.21;100648.34;3607393;39;20046;-64
2023/12/23 11:00:54;;;;;;;7.88;2.55;;;;;;;11.70;74.48;100619.59;3611343;39;20111;-65
2023/12/23 11:03:21;;;;;;;13.20;1.92;;;;;;;11.85;74.60;100650.88;3610690;39;20046;-64
2023/12/23 11:05:49;;;;;;;8.88;2.05;;;;;;;11.83;74.39;100639.31;3601761;39;20066;-65
2023/12/23 11:08:24;;;;;;;6.05;2.20;;;;;;;11.88;74.27;100644.41;3609341;39;20086;-65
2023/12/23 11:10:51;;;;;;;8.32;2.38;;;;;;;11.91;73.89;100643.34;3611459;39;20330;-65
2023/12/23 11:13:19;;;;;;;7.07;1.70;;;;;;;11.97;73.01;100649.16;3609388;39;20083;-65
2023/12/23 11:15:47;;;;;;;6.50;1.60;;;;;;;11.97;72.83;100637.53;3611337;39;20120;-64
2023/12/23 11:18:13;;;;;;;5.20;1.58;;;;;;;11.95;72.73;100648.38;3609248;39;20055;-65
2023/12/23 11:20:41;;;;;;;8.18;1.77;;;;;;;11.96;73.09;100644.75;3611633;39;20555;-65